Time;durP1;ratioP1;P1;durP2;ratioP2;P2;SDS_P1;SDS_P2;PMS_P1;PMS_P2;Temp;Humidity;BMP_temperature;BMP_pressure;BME280_temperature;BME280_humidity;BME280_pressure;Samples;Min_cycle;Max_cycle;Signal;HPM_P1;HPM_P2
2023/06/09 00:01:53;;;;;;;4.18;3.88;;;21.80;62.10;;;;;;4972810;28;20202;-68
2023/06/09 00:04:23;;;;;;;4.50;4.20;;;21.80;62.10;;;;;;4973894;28;20651;-66
2023/06/09 00:06:51;;;;;;;3.67;3.38;;;21.80;62.10;;;;;;4972445;28;20232;-68
2023/06/09 00:09:21;;;;;;;4.65;3.72;;;21.80;62.10;;;;;;4988937;28;20213;-67
2023/06/09 00:11:48;;;;;;;4.50;4.10;;;21.80;62.10;;;;;;4986803;28;20198;-68
2023/06/09 00:14:14;;;;;;;4.03;3.72;;;21.80;62.10;;;;;;4963741;28;20524;-68
2023/06/09 00:16:46;;;;;;;4.60;4.20;;;21.80;62.10;;;;;;4985620;28;20209;-68
2023/06/09 00:19:16;;;;;;;3.78;3.53;;;21.80;62.10;;;;;;4974431;28;20217;-68
2023/06/09 00:21:49;;;;;;;4.30;3.90;;;21.80;62.20;;;;;;4972605;28;20205;-68
2023/06/09 00:24:21;;;;;;;4.15;3.85;;;21.80;62.10;;;;;;4988694;28;20268;-68
2023/06/09 00:26:48;;;;;;;4.60;4.20;;;21.80;62.10;;;;;;4972200;28;20217;-68
2023/06/09 00:29:18;;;;;;;4.10;3.80;;;21.80;62.10;;;;;;4988356;28;20213;-68
2023/06/09 00:31:44;;;;;;;4.18;3.78;;;21.80;62.10;;;;;;4988442;28;20193;-68
2023/06/09 00:34:11;;;;;;;4.10;3.80;;;21.80;62.20;;;;;;4988458;28;20238;-68
2023/06/09 00:36:36;;;;;;;4.65;4.28;;;21.70;62.00;;;;;;4988355;28;20182;-69
2023/06/09 00:39:03;;;;;;;4.10;3.80;;;21.80;62.10;;;;;;4972036;28;20233;-68
2023/06/09 00:41:29;;;;;;;4.40;4.10;;;21.80;62.10;;;;;;4988225;28;20241;-68
2023/06/09 00:43:55;;;;;;;4.18;3.88;;;21.80;62.10;;;;;;4988257;28;20221;-68
2023/06/09 00:46:22;;;;;;;4.18;3.78;;;21.80;62.10;;;;;;4980222;28;20630;-68
2023/06/09 00:48:49;;;;;;;4.10;3.80;;;21.70;62.00;;;;;;4987875;28;20217;-68
2023/06/09 00:51:16;;;;;;;4.07;3.75;;;21.80;62.20;;;;;;4988046;28;20182;-68
2023/06/09 00:53:42;;;;;;;4.45;4.10;;;21.70;62.00;;;;;;4963953;28;20540;-68
2023/06/09 00:56:08;;;;;;;4.20;3.90;;;21.70;62.80;;;;;;4969189;28;20187;-68
2023/06/09 00:58:34;;;;;;;4.03;3.72;;;21.70;62.00;;;;;;4968453;28;20208;-68
2023/06/09 01:01:00;;;;;;;3.92;3.67;;;21.70;62.00;;;;;;4963876;28;20202;-68
2023/06/09 01:03:32;;;;;;;4.25;3.95;;;21.70;62.00;;;;;;4973213;28;20200;-68
2023/06/09 01:06:16;;;;;;;3.90;3.60;;;21.70;62.00;;;;;;4971917;28;20186;-68
2023/06/09 01:08:55;;;;;;;4.00;3.60;;;21.70;62.00;;;;;;4980173;28;20229;-68
2023/06/09 01:11:32;;;;;;;3.70;3.40;;;21.70;62.10;;;;;;4972098;28;20220;-68
2023/06/09 01:14:14;;;;;;;4.18;3.88;;;21.70;62.00;;;;;;4991883;28;20207;-68
2023/06/09 01:17:02;;;;;;;4.50;4.20;;;21.70;62.00;;;;;;4991127;28;20190;-68
2023/06/09 01:19:32;;;;;;;4.00;3.70;;;21.70;62.00;;;;;;4984181;28;20210;-67
2023/06/09 01:22:27;;;;;;;3.95;3.63;;;21.70;62.00;;;;;;4971937;28;20186;-68
2023/06/09 01:25:17;;;;;;;3.78;3.42;;;21.70;62.10;;;;;;4990680;28;20230;-68
2023/06/09 01:27:45;;;;;;;4.13;3.83;;;21.70;62.10;;;;;;4991622;28;20696;-68
2023/06/09 01:30:15;;;;;;;4.10;3.80;;;21.70;62.00;;;;;;4991433;28;20197;-68
2023/06/09 01:32:42;;;;;;;4.78;4.25;;;21.70;62.00;;;;;;4991947;28;20198;-68
2023/06/09 01:35:09;;;;;;;4.13;3.83;;;21.70;62.00;;;;;;4991654;28;20217;-68
2023/06/09 01:37:35;;;;;;;3.97;3.58;;;21.70;62.00;;;;;;4979041;28;20200;-68
2023/06/09 01:40:03;;;;;;;3.80;3.50;;;21.70;62.00;;;;;;4983444;28;20210;-67
2023/06/09 01:42:29;;;;;;;4.30;4.00;;;21.70;62.00;;;;;;4977026;28;20195;-68
2023/06/09 01:44:55;;;;;;;4.10;3.80;;;21.70;62.00;;;;;;4974705;28;20225;-68
2023/06/09 01:47:21;;;;;;;4.07;3.78;;;21.70;62.10;;;;;;4977767;28;20217;-68
2023/06/09 01:50:02;;;;;;;4.20;3.90;;;21.70;62.00;;;;;;4963299;28;20217;-67
2023/06/09 01:52:40;;;;;;;4.50;4.13;;;21.70;62.60;;;;;;4968395;28;20214;-68
2023/06/09 01:55:44;;;;;;;4.50;4.10;;;21.70;62.00;;;;;;4980329;28;20186;-68
2023/06/09 01:58:22;;;;;;;4.03;3.72;;;21.70;62.00;;;;;;4930772;28;20304;-68
2023/06/09 02:00:49;;;;;;;4.43;3.60;;;21.70;62.00;;;;;;4989636;28;20193;-68
2023/06/09 02:03:22;;;;;;;3.92;3.63;;;21.70;62.00;;;;;;4979955;28;20190;-68
2023/06/09 02:05:53;;;;;;;3.92;3.63;;;21.60;62.00;;;;;;4962915;28;20213;-68
2023/06/09 02:08:21;;;;;;;4.10;3.80;;;21.70;62.00;;;;;;4985676;28;20229;-68
2023/06/09 02:10:48;;;;;;;3.83;3.53;;;21.60;62.00;;;;;;4987342;28;20193;-68
2023/06/09 02:13:19;;;;;;;4.03;3.72;;;21.70;62.10;;;;;;4979856;28;20183;-68
2023/06/09 02:15:49;;;;;;;4.10;3.80;;;21.70;62.10;;;;;;4980145;28;20191;-68
2023/06/09 02:18:21;;;;;;;3.58;3.33;;;21.60;62.00;;;;;;4990706;28;20293;-68
2023/06/09 02:20:50;;;;;;;4.15;3.85;;;21.70;62.10;;;;;;4974526;28;20201;-68
2023/06/09 02:23:19;;;;;;;3.72;3.42;;;21.60;62.00;;;;;;4965092;28;20187;-67
2023/06/09 02:25:46;;;;;;;4.03;3.72;;;21.60;62.00;;;;;;4990741;28;20185;-68
2023/06/09 02:28:13;;;;;;;4.05;3.75;;;21.60;62.00;;;;;;4990262;28;20214;-68
2023/06/09 02:30:40;;;;;;;4.00;3.70;;;21.60;62.00;;;;;;4982281;28;20198;-67
2023/06/09 02:33:06;;;;;;;4.32;4.03;;;21.70;62.00;;;;;;4958711;28;20272;-67
2023/06/09 02:35:32;;;;;;;4.00;3.70;;;21.60;62.00;;;;;;4974227;28;20225;-68
2023/06/09 02:38:02;;;;;;;4.25;3.85;;;21.70;62.00;;;;;;4973989;28;20193;-68
2023/06/09 02:40:29;;;;;;;3.75;3.45;;;21.60;62.00;;;;;;4982170;28;20194;-68
2023/06/09 02:42:55;;;;;;;3.40;3.20;;;21.60;62.00;;;;;;4981000;28;20245;-68
2023/06/09 02:45:21;;;;;;;3.50;3.20;;;21.60;61.90;;;;;;4974047;28;20221;-68
2023/06/09 02:47:46;;;;;;;4.20;3.80;;;21.60;62.00;;;;;;4987432;28;20218;-68
2023/06/09 02:50:12;;;;;;;3.60;3.30;;;21.60;62.00;;;;;;4974683;28;20274;-68
2023/06/09 02:52:40;;;;;;;4.03;3.72;;;21.60;62.00;;;;;;4958977;28;20186;-68
2023/06/09 02:55:08;;;;;;;3.58;3.30;;;21.60;62.00;;;;;;4982074;28;20185;-68
2023/06/09 02:57:37;;;;;;;3.65;3.35;;;21.60;62.00;;;;;;4973621;28;20216;-68
2023/06/09 03:00:08;;;;;;;3.53;3.22;;;21.60;62.00;;;;;;4989526;28;20213;-68
2023/06/09 03:02:37;;;;;;;4.15;3.75;;;21.60;62.00;;;;;;4990209;28;20189;-68
2023/06/09 03:05:05;;;;;;;3.75;3.47;;;21.60;62.00;;;;;;4989899;28;20193;-68
2023/06/09 03:07:31;;;;;;;3.92;3.58;;;21.60;61.90;;;;;;4981591;28;20251;-67
2023/06/09 03:09:59;;;;;;;4.00;3.70;;;21.60;62.00;;;;;;4987577;28;20205;-67
2023/06/09 03:12:25;;;;;;;3.88;3.58;;;21.60;62.00;;;;;;4984255;28;20301;-68
2023/06/09 03:14:51;;;;;;;3.97;3.67;;;21.60;62.00;;;;;;4973904;28;20194;-66
2023/06/09 03:17:17;;;;;;;4.05;3.72;;;21.60;62.70;;;;;;4957553;28;20185;-68
2023/06/09 03:19:44;;;;;;;4.22;3.92;;;21.60;61.90;;;;;;4972944;28;20224;-67
2023/06/09 03:22:10;;;;;;;3.95;3.65;;;21.60;61.90;;;;;;4981520;28;20214;-67
2023/06/09 03:24:39;;;;;;;4.20;3.90;;;21.60;62.00;;;;;;4981268;28;20190;-68
2023/06/09 03:27:05;;;;;;;3.50;3.30;;;21.60;61.90;;;;;;4989252;28;20210;-68
2023/06/09 03:29:31;;;;;;;4.20;3.90;;;21.60;61.90;;;;;;4989410;28;20319;-67
2023/06/09 03:31:58;;;;;;;4.05;3.75;;;21.60;61.90;;;;;;4973145;28;20192;-68
2023/06/09 03:34:25;;;;;;;3.83;3.53;;;21.60;61.90;;;;;;4972860;28;20233;-68
2023/06/09 03:36:54;;;;;;;3.83;3.53;;;21.60;61.90;;;;;;4981898;28;20201;-68
2023/06/09 03:39:19;;;;;;;3.92;3.63;;;21.60;61.90;;;;;;4972903;28;20272;-67
2023/06/09 03:41:46;;;;;;;3.78;3.47;;;21.60;61.90;;;;;;4974121;28;20217;-68
2023/06/09 03:44:12;;;;;;;3.47;3.22;;;21.60;62.00;;;;;;4989237;28;20189;-68
2023/06/09 03:46:38;;;;;;;3.85;3.55;;;21.60;62.00;;;;;;4965208;28;20587;-67
2023/06/09 03:49:03;;;;;;;3.67;3.38;;;21.50;61.80;;;;;;4973206;28;20210;-67
2023/06/09 03:51:30;;;;;;;3.75;3.45;;;21.60;62.00;;;;;;4974014;28;20188;-66
2023/06/09 03:53:58;;;;;;;3.70;3.40;;;21.50;61.90;;;;;;4980977;28;20190;-68
2023/06/09 03:56:23;;;;;;;3.67;3.38;;;21.60;62.00;;;;;;4985768;28;20189;-67
2023/06/09 03:58:49;;;;;;;3.83;3.53;;;21.60;62.00;;;;;;4983139;28;20214;-67
2023/06/09 04:01:17;;;;;;;3.80;3.50;;;21.60;62.00;;;;;;4983054;28;20264;-68
2023/06/09 04:03:43;;;;;;;3.47;3.28;;;21.60;62.00;;;;;;4973266;28;20201;-67
2023/06/09 04:06:09;;;;;;;3.75;3.45;;;21.60;62.00;;;;;;4969139;28;20202;-66
2023/06/09 04:08:35;;;;;;;3.92;3.63;;;21.60;62.00;;;;;;4967732;28;20220;-67
2023/06/09 04:11:00;;;;;;;3.88;3.58;;;21.60;62.10;;;;;;4986598;28;20186;-66
2023/06/09 04:13:26;;;;;;;3.67;3.47;;;21.60;62.10;;;;;;4969597;28;20258;-67
2023/06/09 04:15:53;;;;;;;4.13;3.65;;;21.60;62.10;;;;;;4951674;28;20198;-66
2023/06/09 04:18:19;;;;;;;3.63;3.33;;;21.60;62.10;;;;;;4966412;28;20205;-67
2023/06/09 04:20:45;;;;;;;3.78;3.47;;;21.60;62.10;;;;;;4969470;28;20222;-68
2023/06/09 04:23:11;;;;;;;3.90;3.60;;;21.50;62.00;;;;;;4969581;28;20729;-67
2023/06/09 04:25:41;;;;;;;4.95;3.65;;;21.50;62.00;;;;;;4984437;28;20193;-67
2023/06/09 04:28:11;;;;;;;3.88;3.58;;;21.50;62.10;;;;;;4972529;28;20209;-68
2023/06/09 04:30:38;;;;;;;4.03;3.72;;;21.60;62.20;;;;;;4972196;28;20200;-68
2023/06/09 04:33:07;;;;;;;3.88;3.58;;;21.50;62.10;;;;;;4970090;28;20190;-67
2023/06/09 04:35:34;;;;;;;3.47;3.28;;;21.50;62.20;;;;;;4983428;28;20185;-68
2023/06/09 04:38:01;;;;;;;4.00;3.70;;;21.60;62.20;;;;;;4980321;28;20225;-68
2023/06/09 04:40:29;;;;;;;3.40;3.10;;;21.50;62.20;;;;;;4974004;28;20604;-68
2023/06/09 04:42:59;;;;;;;3.50;3.30;;;21.50;62.20;;;;;;4987150;28;20189;-68
2023/06/09 04:45:34;;;;;;;3.33;3.08;;;21.50;62.20;;;;;;4982363;28;20189;-68
2023/06/09 04:48:05;;;;;;;3.78;3.47;;;21.50;62.20;;;;;;4987426;28;20225;-67
2023/06/09 04:50:33;;;;;;;3.53;3.33;;;21.50;62.30;;;;;;4980058;28;20182;-68
2023/06/09 04:53:06;;;;;;;3.63;3.42;;;21.50;62.30;;;;;;4978478;28;20247;-68
2023/06/09 04:55:35;;;;;;;3.60;3.30;;;21.50;62.30;;;;;;4967213;28;20257;-68
2023/06/09 04:58:03;;;;;;;3.63;3.33;;;21.50;62.40;;;;;;4964058;28;20225;-68
2023/06/09 05:00:29;;;;;;;3.35;3.15;;;21.50;62.40;;;;;;4972035;28;20182;-68
2023/06/09 05:02:57;;;;;;;3.60;3.30;;;21.50;62.40;;;;;;4986005;28;20199;-68
2023/06/09 05:05:24;;;;;;;3.55;3.33;;;21.50;62.40;;;;;;4960724;28;20217;-68
2023/06/09 05:07:50;;;;;;;3.88;3.58;;;21.50;62.40;;;;;;4973566;28;20265;-68
2023/06/09 05:10:18;;;;;;;3.88;3.58;;;21.50;62.80;;;;;;4980501;28;20205;-68
2023/06/09 05:12:44;;;;;;;3.70;3.40;;;21.50;62.50;;;;;;4969035;28;20561;-68
2023/06/09 05:15:10;;;;;;;3.88;3.58;;;21.50;62.50;;;;;;4985626;28;20200;-68
2023/06/09 05:17:37;;;;;;;3.22;3.03;;;21.50;62.50;;;;;;4983424;28;20189;-67
2023/06/09 05:20:06;;;;;;;3.75;3.40;;;21.50;62.50;;;;;;4970088;28;20237;-68
2023/06/09 05:22:33;;;;;;;3.90;3.60;;;21.50;62.50;;;;;;4970957;28;20191;-66
2023/06/09 05:24:59;;;;;;;3.75;3.45;;;21.50;62.50;;;;;;4966588;28;20190;-68
2023/06/09 05:27:25;;;;;;;3.15;2.95;;;21.50;62.50;;;;;;4965078;28;20617;-67
2023/06/09 05:29:51;;;;;;;3.92;3.63;;;21.50;62.50;;;;;;4979568;28;20241;-69
2023/06/09 05:32:18;;;;;;;3.47;3.28;;;21.50;62.50;;;;;;4976750;28;20186;-67
2023/06/09 05:34:44;;;;;;;3.60;3.30;;;21.50;62.50;;;;;;4968683;28;20186;-67
2023/06/09 05:37:13;;;;;;;3.80;3.50;;;21.50;62.40;;;;;;4968387;28;20233;-66
2023/06/09 05:39:42;;;;;;;3.72;3.42;;;21.50;62.50;;;;;;4979553;28;20353;-68
2023/06/09 05:42:08;;;;;;;3.20;3.00;;;21.50;62.50;;;;;;4984947;28;20202;-68
2023/06/09 05:44:34;;;;;;;3.63;3.42;;;21.50;62.50;;;;;;4967239;28;20205;-67
2023/06/09 05:47:00;;;;;;;3.58;3.30;;;21.50;62.50;;;;;;4969078;28;20214;-67
2023/06/09 05:49:26;;;;;;;3.88;3.40;;;21.50;62.40;;;;;;4987435;28;20206;-68
2023/06/09 05:51:51;;;;;;;3.65;3.42;;;21.50;62.50;;;;;;4971081;28;20194;-68
2023/06/09 05:54:19;;;;;;;3.40;3.20;;;21.50;62.50;;;;;;4987582;28;20189;-68
2023/06/09 05:56:48;;;;;;;3.42;3.13;;;21.50;62.50;;;;;;4984594;28;20198;-67
2023/06/09 05:59:15;;;;;;;3.45;3.25;;;21.50;62.50;;;;;;4987022;28;20265;-68
2023/06/09 06:01:42;;;;;;;3.55;3.25;;;21.50;62.50;;;;;;4970034;28;20356;-68
2023/06/09 06:04:08;;;;;;;3.33;3.08;;;21.50;62.50;;;;;;4989016;28;20276;-68
2023/06/09 06:06:34;;;;;;;3.53;3.30;;;21.50;62.50;;;;;;4977340;28;20661;-68
2023/06/09 06:09:00;;;;;;;3.42;2.92;;;21.60;62.60;;;;;;4957483;28;20309;-68
2023/06/09 06:11:26;;;;;;;3.05;2.85;;;21.60;62.60;;;;;;4983732;28;20269;-68
2023/06/09 06:13:52;;;;;;;3.10;2.90;;;21.60;62.60;;;;;;4991153;28;20708;-67
2023/06/09 06:16:18;;;;;;;3.65;3.35;;;21.60;62.60;;;;;;4974801;28;20197;-68
2023/06/09 06:18:44;;;;;;;3.30;3.10;;;21.60;62.60;;;;;;4958483;28;20218;-68
2023/06/09 06:21:11;;;;;;;3.90;3.60;;;21.60;62.60;;;;;;4959631;28;20734;-68
2023/06/09 06:23:36;;;;;;;3.13;2.92;;;21.60;62.50;;;;;;4987416;28;20194;-68
2023/06/09 06:26:02;;;;;;;3.70;3.40;;;21.60;62.60;;;;;;4989798;28;20553;-68
2023/06/09 06:28:28;;;;;;;3.53;3.22;;;21.60;62.60;;;;;;4983694;28;20601;-68
2023/06/09 06:30:54;;;;;;;3.22;3.03;;;21.60;62.60;;;;;;4958131;28;20201;-67
2023/06/09 06:33:20;;;;;;;3.60;3.35;;;21.60;62.60;;;;;;4985410;28;20200;-67
2023/06/09 06:35:46;;;;;;;3.30;3.10;;;21.60;62.50;;;;;;4983754;28;20324;-67
2023/06/09 06:38:11;;;;;;;3.33;3.03;;;21.60;62.60;;;;;;4981169;28;20214;-68
2023/06/09 06:40:37;;;;;;;3.38;3.08;;;21.60;62.60;;;;;;4958022;28;20190;-69
2023/06/09 06:43:03;;;;;;;3.45;3.15;;;21.60;62.60;;;;;;4974269;28;20205;-70
2023/06/09 06:45:46;;;;;;;3.45;3.25;;;21.60;62.60;;;;;;4981167;28;20545;-68
2023/06/09 06:48:12;;;;;;;3.17;2.88;;;21.60;62.50;;;;;;4988014;28;20298;-69
2023/06/09 06:50:40;;;;;;;3.33;3.03;;;21.60;62.60;;;;;;4990115;28;20213;-70
2023/06/09 06:53:06;;;;;;;3.45;3.25;;;21.60;62.60;;;;;;4980191;28;20185;-70
2023/06/09 06:55:31;;;;;;;3.47;3.17;;;21.60;62.60;;;;;;4973990;28;20233;-70
2023/06/09 06:57:57;;;;;;;3.72;3.20;;;21.60;62.60;;;;;;4975410;28;20197;-69
2023/06/09 07:00:24;;;;;;;3.20;3.00;;;21.70;62.70;;;;;;4987031;28;20186;-69
2023/06/09 07:02:50;;;;;;;3.50;3.20;;;21.70;62.70;;;;;;4966549;28;20571;-69
2023/06/09 07:05:17;;;;;;;3.10;2.90;;;21.70;62.70;;;;;;4987661;28;20206;-69
2023/06/09 07:07:45;;;;;;;3.30;3.10;;;21.60;62.60;;;;;;4985158;28;20248;-69
2023/06/09 07:10:11;;;;;;;3.47;3.17;;;21.70;62.70;;;;;;4989036;28;20198;-69
2023/06/09 07:12:37;;;;;;;3.03;2.83;;;21.70;62.70;;;;;;4974081;28;20189;-69
2023/06/09 07:15:03;;;;;;;3.75;3.45;;;21.60;62.60;;;;;;4972643;28;20187;-67
2023/06/09 07:17:29;;;;;;;3.13;2.92;;;21.60;62.60;;;;;;4959788;28;20189;-69
2023/06/09 07:19:55;;;;;;;3.35;3.05;;;21.70;62.70;;;;;;4971630;28;20334;-69
2023/06/09 07:22:21;;;;;;;2.90;2.70;;;21.70;62.70;;;;;;4973274;28;20190;-69
2023/06/09 07:24:47;;;;;;;2.92;2.72;;;21.70;62.70;;;;;;4989925;28;20197;-69
2023/06/09 07:27:13;;;;;;;4.32;3.13;;;21.70;62.70;;;;;;4971916;28;20238;-69
2023/06/09 07:29:41;;;;;;;3.00;2.70;;;21.70;62.70;;;;;;4977735;28;20308;-69
2023/06/09 07:32:07;;;;;;;3.58;3.28;;;21.70;62.70;;;;;;4969396;28;20223;-69
2023/06/09 07:34:33;;;;;;;3.35;3.10;;;21.70;62.70;;;;;;4961809;28;20182;-68
2023/06/09 07:37:00;;;;;;;3.70;3.22;;;21.70;62.70;;;;;;4966803;28;20273;-70
2023/06/09 07:39:27;;;;;;;3.38;3.17;;;21.70;62.70;;;;;;4973183;28;20202;-69
2023/06/09 07:41:53;;;;;;;2.85;2.65;;;21.70;62.60;;;;;;4973078;28;20198;-69
2023/06/09 07:44:18;;;;;;;3.00;2.80;;;21.70;62.60;;;;;;4986713;28;20193;-69
2023/06/09 07:46:44;;;;;;;3.85;3.55;;;21.70;62.50;;;;;;4967638;28;20306;-69
2023/06/09 07:49:10;;;;;;;3.00;2.80;;;21.70;62.50;;;;;;4988958;28;20244;-69
2023/06/09 07:51:37;;;;;;;3.40;3.10;;;21.70;62.40;;;;;;4989042;28;20196;-69
2023/06/09 07:54:06;;;;;;;3.55;3.25;;;21.80;62.60;;;;;;4956706;28;20211;-69
2023/06/09 07:56:32;;;;;;;3.33;3.13;;;21.80;62.70;;;;;;4978194;28;20226;-69
2023/06/09 07:58:58;;;;;;;3.40;3.10;;;21.80;62.70;;;;;;4969264;28;20213;-69
2023/06/09 08:01:25;;;;;;;4.15;3.00;;;21.80;62.70;;;;;;4972511;28;20193;-69
2023/06/09 08:03:51;;;;;;;3.17;2.88;;;21.80;62.70;;;;;;4989292;28;20221;-69
2023/06/09 08:06:17;;;;;;;4.00;2.80;;;21.80;62.70;;;;;;4972764;28;20225;-69
2023/06/09 08:08:43;;;;;;;3.20;2.90;;;21.80;62.70;;;;;;4972627;28;20225;-69
2023/06/09 08:11:10;;;;;;;3.95;2.80;;;21.80;62.80;;;;;;4970431;28;20194;-69
2023/06/09 08:13:36;;;;;;;3.13;2.92;;;21.80;62.70;;;;;;4961124;28;20190;-69
2023/06/09 08:16:01;;;;;;;3.60;3.30;;;21.80;62.80;;;;;;4966101;28;20205;-70
2023/06/09 08:18:27;;;;;;;3.28;3.08;;;21.80;62.70;;;;;;4961246;28;20250;-69
2023/06/09 08:20:53;;;;;;;3.67;3.38;;;21.90;62.90;;;;;;4981300;28;20202;-69
2023/06/09 08:23:21;;;;;;;3.30;3.00;;;21.80;62.80;;;;;;4987610;28;20197;-70
2023/06/09 08:25:48;;;;;;;3.47;3.28;;;21.90;62.90;;;;;;4980575;28;20201;-70
2023/06/09 08:28:14;;;;;;;3.17;2.97;;;21.80;62.80;;;;;;4980394;28;20233;-69
2023/06/09 08:30:40;;;;;;;3.53;3.22;;;21.90;63.00;;;;;;4988435;28;20213;-69
2023/06/09 08:33:06;;;;;;;3.75;3.45;;;21.90;62.90;;;;;;4980431;28;20199;-70
2023/06/09 08:35:32;;;;;;;3.70;3.40;;;21.90;62.90;;;;;;4972011;28;20220;-69
2023/06/09 08:38:00;;;;;;;4.63;3.40;;;21.90;62.90;;;;;;4964594;28;20198;-68
2023/06/09 08:40:25;;;;;;;2.90;2.70;;;21.90;62.80;;;;;;4963746;28;20197;-68
2023/06/09 08:42:55;;;;;;;3.33;3.13;;;21.90;62.90;;;;;;4972269;28;20193;-70
2023/06/09 08:45:22;;;;;;;3.22;3.03;;;21.90;62.70;;;;;;4987937;28;20260;-70
2023/06/09 08:47:52;;;;;;;3.70;3.40;;;21.90;62.70;;;;;;4985162;28;20210;-70
2023/06/09 08:50:20;;;;;;;3.20;2.90;;;21.90;62.70;;;;;;4988306;28;20193;-70
2023/06/09 08:52:48;;;;;;;3.40;3.10;;;22.00;62.70;;;;;;4988262;28;20185;-69
2023/06/09 08:55:14;;;;;;;3.58;3.28;;;22.00;62.80;;;;;;4988440;28;20284;-68
2023/06/09 08:57:42;;;;;;;3.35;3.05;;;22.00;62.80;;;;;;4983308;28;20193;-69
2023/06/09 09:00:11;;;;;;;3.30;3.00;;;22.00;62.80;;;;;;4977060;28;20241;-70
2023/06/09 09:02:38;;;;;;;3.50;3.20;;;22.00;62.80;;;;;;4973434;28;20185;-69
2023/06/09 09:05:04;;;;;;;3.30;3.10;;;22.00;62.80;;;;;;4957484;28;20264;-71
2023/06/09 09:07:30;;;;;;;3.30;3.00;;;22.00;62.90;;;;;;4955996;28;20214;-69
2023/06/09 09:09:58;;;;;;;3.63;3.35;;;22.00;62.80;;;;;;4971777;28;20296;-69
2023/06/09 09:12:24;;;;;;;3.25;3.05;;;22.00;62.70;;;;;;4972188;28;20225;-69
2023/06/09 09:14:50;;;;;;;2.95;2.75;;;22.00;62.90;;;;;;4980414;28;20194;-69
2023/06/09 09:17:16;;;;;;;3.20;2.90;;;22.00;62.90;;;;;;4980059;28;20200;-70
2023/06/09 09:19:45;;;;;;;3.33;3.10;;;22.10;63.00;;;;;;4984690;28;20218;-68
2023/06/09 09:22:11;;;;;;;3.25;3.05;;;22.10;63.00;;;;;;4969362;28;20202;-69
2023/06/09 09:24:43;;;;;;;3.03;2.83;;;22.00;62.90;;;;;;4972951;28;20185;-70
2023/06/09 09:27:18;;;;;;;3.22;2.92;;;22.00;62.90;;;;;;4979198;28;20279;-69
2023/06/09 09:29:45;;;;;;;3.38;3.05;;;22.00;62.90;;;;;;4965374;28;20214;-69
2023/06/09 09:32:10;;;;;;;3.55;3.22;;;22.10;62.90;;;;;;4985414;28;20194;-68
2023/06/09 09:34:42;;;;;;;3.65;3.25;;;22.10;62.90;;;;;;4983529;28;20188;-69
2023/06/09 09:37:13;;;;;;;3.00;2.70;;;22.00;62.90;;;;;;4988951;28;20557;-70
2023/06/09 09:39:53;;;;;;;3.05;2.85;;;22.10;62.90;;;;;;4968334;28;20213;-70
2023/06/09 09:42:20;;;;;;;3.10;2.90;;;22.10;62.90;;;;;;4957683;28;20190;-69
2023/06/09 09:44:51;;;;;;;3.08;2.88;;;22.10;63.10;;;;;;4953353;28;20276;-69
2023/06/09 09:47:18;;;;;;;3.38;3.17;;;22.00;62.90;;;;;;4973390;28;20214;-70
2023/06/09 09:49:55;;;;;;;2.90;2.70;;;22.10;63.00;;;;;;4974865;28;20206;-70
2023/06/09 09:52:30;;;;;;;3.08;2.88;;;22.10;63.10;;;;;;4989575;28;20186;-69
2023/06/09 09:55:00;;;;;;;3.70;3.25;;;22.10;63.10;;;;;;4970685;28;20196;-68
2023/06/09 09:57:31;;;;;;;2.95;2.75;;;22.00;63.00;;;;;;4974476;28;20554;-69
2023/06/09 10:00:00;;;;;;;3.63;2.85;;;22.00;63.00;;;;;;4984580;28;20218;-70
2023/06/09 10:02:30;;;;;;;3.10;2.83;;;22.10;63.10;;;;;;4974185;28;20205;-70
2023/06/09 10:05:03;;;;;;;3.22;2.92;;;22.10;63.10;;;;;;4959193;28;20201;-70
2023/06/09 10:07:34;;;;;;;3.20;3.00;;;22.00;63.00;;;;;;4957275;28;20236;-70
2023/06/09 10:10:01;;;;;;;2.97;2.78;;;22.10;63.10;;;;;;4978783;28;20214;-69
2023/06/09 10:12:27;;;;;;;2.78;2.58;;;22.10;63.10;;;;;;4975951;28;20182;-69
2023/06/09 10:14:55;;;;;;;2.80;2.58;;;22.10;63.10;;;;;;4958681;28;20205;-69
2023/06/09 10:17:25;;;;;;;2.92;2.72;;;22.10;63.10;;;;;;4991171;28;20201;-70
2023/06/09 10:19:52;;;;;;;3.38;3.17;;;22.10;63.10;;;;;;4990851;28;20218;-70
2023/06/09 10:22:19;;;;;;;2.60;2.40;;;22.10;63.10;;;;;;4989725;28;20252;-70
2023/06/09 10:24:46;;;;;;;2.70;2.50;;;22.10;63.10;;;;;;4956577;28;20190;-69
2023/06/09 10:27:14;;;;;;;2.75;2.55;;;22.10;63.10;;;;;;4979527;28;20281;-69
2023/06/09 10:29:40;;;;;;;2.80;2.60;;;22.10;63.10;;;;;;4964015;28;20229;-70
2023/06/09 10:32:12;;;;;;;3.35;3.05;;;22.10;63.10;;;;;;4986915;28;20221;-69
2023/06/09 10:34:46;;;;;;;2.90;2.70;;;22.10;63.10;;;;;;4990589;28;20221;-68
2023/06/09 10:37:12;;;;;;;3.22;2.92;;;22.10;63.10;;;;;;4979610;28;20187;-70
2023/06/09 10:39:57;;;;;;;3.47;2.85;;;22.10;63.10;;;;;;4983131;28;20240;-69
2023/06/09 10:42:50;;;;;;;2.95;2.75;;;22.10;63.10;;;;;;4989317;28;20218;-69
2023/06/09 10:45:19;;;;;;;2.90;2.70;;;22.10;63.10;;;;;;4957285;28;20206;-69
2023/06/09 10:47:50;;;;;;;3.05;2.85;;;22.10;63.10;;;;;;4978851;28;20222;-69
2023/06/09 10:50:32;;;;;;;3.17;2.60;;;22.10;63.10;;;;;;4985149;28;20674;-69
2023/06/09 10:52:59;;;;;;;3.55;3.00;;;22.10;63.10;;;;;;4967566;28;20193;-67
2023/06/09 10:55:27;;;;;;;3.13;2.80;;;22.10;63.10;;;;;;4973707;28;20332;-70
2023/06/09 10:57:57;;;;;;;3.15;2.95;;;22.10;63.10;;;;;;4987285;28;20280;-69
2023/06/09 11:00:25;;;;;;;3.08;2.88;;;22.10;63.10;;;;;;4988740;28;20280;-70
2023/06/09 11:03:06;;;;;;;2.97;2.72;;;22.10;63.10;;;;;;4974220;28;20194;-69
2023/06/09 11:05:42;;;;;;;3.22;2.85;;;22.10;63.10;;;;;;4957793;28;20190;-69
2023/06/09 11:08:08;;;;;;;3.10;2.90;;;22.10;63.10;;;;;;4982254;28;20245;-69
2023/06/09 11:10:38;;;;;;;3.25;3.05;;;22.10;63.10;;;;;;4989575;28;20572;-70
2023/06/09 11:13:40;;;;;;;3.08;2.88;;;22.10;63.10;;;;;;4982811;28;20196;-69
2023/06/09 11:16:08;;;;;;;2.97;2.78;;;22.20;63.20;;;;;;4989794;28;20196;-71
2023/06/09 11:18:33;;;;;;;3.90;2.75;;;22.20;63.20;;;;;;4954482;28;20215;-69
2023/06/09 11:21:19;;;;;;;2.80;2.60;;;22.20;63.20;;;;;;4981907;28;20198;-69
2023/06/09 11:23:57;;;;;;;3.28;3.05;;;22.10;63.10;;;;;;4979802;28;20321;-69
2023/06/09 11:26:24;;;;;;;3.33;3.10;;;22.20;63.30;;;;;;4989548;28;20251;-70
2023/06/09 11:28:50;;;;;;;5.88;3.13;;;22.20;63.70;;;;;;4989326;28;20221;-70
2023/06/09 11:31:17;;;;;;;4.00;3.00;;;22.20;63.70;;;;;;4988678;28;20194;-70
2023/06/09 11:33:53;;;;;;;3.70;3.08;;;22.20;63.70;;;;;;4955283;28;20197;-69
2023/06/09 11:36:30;;;;;;;2.88;2.63;;;22.20;63.40;;;;;;4984594;28;20250;-70
2023/06/09 11:39:03;;;;;;;8.65;2.80;;;22.20;63.40;;;;;;4973457;28;20697;-67
2023/06/09 11:41:30;;;;;;;3.90;2.92;;;22.20;63.40;;;;;;4985939;28;20205;-69
2023/06/09 11:43:56;;;;;;;3.80;3.28;;;22.20;63.60;;;;;;4955208;28;20201;-68
2023/06/09 11:46:23;;;;;;;3.03;2.83;;;22.20;63.70;;;;;;4987105;28;20395;-67
2023/06/09 11:49:04;;;;;;;2.95;2.75;;;22.20;63.60;;;;;;4978100;28;20226;-71
2023/06/09 11:51:57;;;;;;;3.35;2.90;;;22.20;63.60;;;;;;4963222;28;20257;-69
2023/06/09 11:54:44;;;;;;;3.15;2.88;;;22.20;63.60;;;;;;4985725;28;20186;-70
2023/06/09 11:57:12;;;;;;;3.30;3.00;;;22.20;63.60;;;;;;4965918;28;20194;-70
2023/06/09 11:59:38;;;;;;;3.15;2.88;;;22.20;63.60;;;;;;4989009;28;20206;-69
2023/06/09 12:02:04;;;;;;;2.97;2.78;;;22.20;63.60;;;;;;4972730;28;20243;-69
2023/06/09 12:04:30;;;;;;;3.55;3.25;;;22.20;63.60;;;;;;4979616;28;20220;-69
2023/06/09 12:06:56;;;;;;;3.22;2.92;;;22.20;63.70;;;;;;4969441;28;20242;-70
2023/06/09 12:09:23;;;;;;;3.10;2.90;;;22.20;63.60;;;;;;4969085;28;20217;-70
2023/06/09 12:11:53;;;;;;;3.58;3.28;;;22.20;63.70;;;;;;4965994;28;20268;-69
2023/06/09 12:14:20;;;;;;;3.38;3.08;;;22.20;63.60;;;;;;4965614;28;20567;-69
2023/06/09 12:16:47;;;;;;;3.22;3.03;;;22.20;63.60;;;;;;4976772;28;20198;-70
2023/06/09 12:19:13;;;;;;;3.30;2.92;;;22.20;64.40;;;;;;4969137;28;20725;-69
2023/06/09 12:21:39;;;;;;;3.60;3.30;;;22.20;63.60;;;;;;4969014;28;20207;-69
2023/06/09 12:24:05;;;;;;;5.30;2.92;;;22.20;63.60;;;;;;4984344;28;20196;-69
2023/06/09 12:26:42;;;;;;;3.20;3.00;;;22.20;63.70;;;;;;4980546;28;20203;-69
2023/06/09 12:29:08;;;;;;;3.42;3.13;;;22.20;63.70;;;;;;4988716;28;20229;-70
2023/06/09 12:31:35;;;;;;;3.20;3.00;;;22.20;63.70;;;;;;4985894;28;20292;-69
2023/06/09 12:34:01;;;;;;;3.30;2.95;;;22.20;63.60;;;;;;4980478;28;20186;-69
2023/06/09 12:36:27;;;;;;;3.45;2.80;;;22.20;63.70;;;;;;4968887;28;20192;-69
2023/06/09 12:38:53;;;;;;;3.05;2.85;;;22.20;63.60;;;;;;4978816;28;20620;-69
2023/06/09 12:41:19;;;;;;;3.10;2.90;;;22.20;63.50;;;;;;4968868;28;20202;-69
2023/06/09 12:43:55;;;;;;;3.10;2.80;;;22.20;63.60;;;;;;4961750;28;20193;-69
2023/06/09 12:46:33;;;;;;;3.63;3.33;;;22.20;63.40;;;;;;4983031;28;20275;-69
2023/06/09 12:49:03;;;;;;;3.53;3.22;;;22.20;63.60;;;;;;4988689;28;20221;-69
2023/06/09 12:51:31;;;;;;;3.58;3.20;;;22.20;63.60;;;;;;4988344;28;20192;-69
2023/06/09 12:53:58;;;;;;;3.25;3.05;;;22.20;63.70;;;;;;4985146;28;20186;-70
2023/06/09 12:56:26;;;;;;;3.13;2.80;;;22.30;63.70;;;;;;4976889;28;20684;-69